createdAt,value
2019-02-28T00:00:41.554Z,141.07
2019-02-28T00:03:10.135Z,143.67
2019-02-28T00:05:39.093Z,147.80
2019-02-28T00:08:07.816Z,129.20
2019-02-28T00:10:36.397Z,126.90
2019-02-28T00:13:04.683Z,135.67
2019-02-28T00:15:32.989Z,137.03
2019-02-28T00:18:01.319Z,132.33
2019-02-28T00:20:31.957Z,132.43
2019-02-28T00:23:00.001Z,134.47
2019-02-28T00:25:28.308Z,129.40
2019-02-28T00:27:56.607Z,130.33
2019-02-28T00:30:24.970Z,119.60
2019-02-28T00:32:56.388Z,117.43
2019-02-28T00:35:23.938Z,112.47
2019-02-28T00:37:52.642Z,120.07
2019-02-28T00:40:21.031Z,121.80
2019-02-28T00:42:50.731Z,123.10
2019-02-28T00:45:19.342Z,122.30
2019-02-28T00:47:48.361Z,120.23
2019-02-28T00:50:16.706Z,121.90
2019-02-28T00:52:45.454Z,120.97
2019-02-28T00:55:15.543Z,121.83
2019-02-28T00:57:44.377Z,118.20
2019-02-28T01:00:18.395Z,117.60
2019-02-28T01:02:52.024Z,119.17
2019-02-28T01:05:16.715Z,114.30
2019-02-28T01:07:48.128Z,116.03
2019-02-28T01:10:15.679Z,110.90
2019-02-28T01:12:43.985Z,111.63
2019-02-28T01:15:17.355Z,111.40
2019-02-28T01:17:45.669Z,111.37
2019-02-28T01:20:16.081Z,111.20
2019-02-28T01:22:43.973Z,107.77
2019-02-28T01:25:14.665Z,109.27
2019-02-28T01:27:43.028Z,105.23
2019-02-28T01:30:13.370Z,106.10
2019-02-28T01:32:41.651Z,106.10
2019-02-28T01:35:09.961Z,104.07
2019-02-28T01:37:38.596Z,101.30
2019-02-28T01:40:09.309Z,100.83
2019-02-28T01:42:37.914Z,101.03
2019-02-28T01:45:10.068Z,99.97
2019-02-28T01:47:39.289Z,97.13
2019-02-28T01:50:09.999Z,101.47
2019-02-28T01:52:44.287Z,98.27
2019-02-28T01:55:10.775Z,100.37
2019-02-28T01:57:42.510Z,97.50
2019-02-28T02:00:12.266Z,97.37
2019-02-28T02:02:40.928Z,93.90
2019-02-28T02:05:09.398Z,93.70
2019-02-28T02:07:37.986Z,97.20
2019-02-28T02:10:17.547Z,95.07
2019-02-28T02:12:47.204Z,90.73
2019-02-28T02:15:16.843Z,88.97
2019-02-28T02:17:46.002Z,88.53
2019-02-28T02:20:15.123Z,88.83
2019-02-28T02:22:44.427Z,90.53
2019-02-28T02:25:13.670Z,86.23
2019-02-28T02:27:42.328Z,83.33
2019-02-28T02:30:20.160Z,87.40
2019-02-28T02:32:48.471Z,87.20
2019-02-28T02:35:17.083Z,82.03
2019-02-28T02:37:45.379Z,83.70
2019-02-28T02:40:15.967Z,80.17
2019-02-28T02:42:48.836Z,82.67
2019-02-28T02:45:14.806Z,81.70
2019-02-28T02:47:43.289Z,81.70
2019-02-28T02:50:15.330Z,77.97
2019-02-28T02:52:43.673Z,77.10
2019-02-28T02:55:12.819Z,79.80
2019-02-28T02:57:41.403Z,75.93
2019-02-28T03:00:13.934Z,78.60
2019-02-28T03:02:42.965Z,75.27
2019-02-28T03:05:11.253Z,73.93
2019-02-28T03:07:39.836Z,73.23
2019-02-28T03:10:11.335Z,75.40
2019-02-28T03:12:39.972Z,75.07
2019-02-28T03:15:11.414Z,71.60
2019-02-28T03:17:46.663Z,73.40
2019-02-28T03:20:11.588Z,73.03
2019-02-28T03:22:40.472Z,71.00
2019-02-28T03:25:12.415Z,67.80
2019-02-28T03:27:41.199Z,67.80
2019-02-28T03:30:27.986Z,73.03
2019-02-28T03:32:47.565Z,77.63
2019-02-28T03:35:18.525Z,84.00
2019-02-28T03:37:46.883Z,76.80
2019-02-28T03:40:15.487Z,75.13
2019-02-28T03:42:43.808Z,74.53
2019-02-28T03:45:15.946Z,75.20
2019-02-28T03:47:44.316Z,74.73
2019-02-28T03:50:12.877Z,76.00
2019-02-28T03:52:43.941Z,75.53
2019-02-28T03:55:14.922Z,71.20
2019-02-28T03:57:43.569Z,72.90
2019-02-28T04:00:20.186Z,70.97
2019-02-28T04:02:52.781Z,72.40
2019-02-28T04:05:26.745Z,70.73
2019-02-28T04:07:52.542Z,70.57
2019-02-28T04:10:21.821Z,68.77
2019-02-28T04:12:48.656Z,68.20
2019-02-28T04:15:20.323Z,67.67
2019-02-28T04:17:48.927Z,68.10
2019-02-28T04:20:18.101Z,66.90
2019-02-28T04:22:46.422Z,63.83
2019-02-28T04:25:14.729Z,66.63
2019-02-28T04:27:43.392Z,76.83
2019-02-28T04:30:15.275Z,74.07
2019-02-28T04:32:43.632Z,72.87
2019-02-28T04:35:11.928Z,69.40
2019-02-28T04:37:44.868Z,72.53
2019-02-28T04:40:11.953Z,79.97
2019-02-28T04:42:40.628Z,82.17
2019-02-28T04:45:11.986Z,77.50
2019-02-28T04:47:41.590Z,78.43
2019-02-28T04:50:11.477Z,74.53
2019-02-28T04:52:40.162Z,74.27
2019-02-28T04:55:09.559Z,74.63
2019-02-28T04:57:38.144Z,72.73
2019-02-28T05:00:12.716Z,72.67
2019-02-28T05:02:41.015Z,72.57
2019-02-28T05:05:12.635Z,72.67
2019-02-28T05:07:39.966Z,70.33
2019-02-28T05:10:09.872Z,71.57
2019-02-28T05:12:39.733Z,69.63
2019-02-28T05:15:10.707Z,69.10
2019-02-28T05:17:38.992Z,64.50
2019-02-28T05:20:10.974Z,62.00
2019-02-28T05:22:38.944Z,73.20
2019-02-28T05:25:11.322Z,76.43
2019-02-28T05:27:39.612Z,80.87
2019-02-28T05:30:19.401Z,76.87
2019-02-28T05:32:46.589Z,72.93
2019-02-28T05:35:14.890Z,74.87
2019-02-28T05:37:46.824Z,72.97
2019-02-28T05:40:16.732Z,73.00
2019-02-28T05:42:45.032Z,72.67
2019-02-28T05:45:14.877Z,73.03
2019-02-28T05:47:46.970Z,70.20
2019-02-28T05:50:16.851Z,71.90
2019-02-28T05:52:43.350Z,69.57
2019-02-28T05:55:11.642Z,68.27
2019-02-28T05:57:43.309Z,69.20
2019-02-28T06:00:16.054Z,67.93
2019-02-28T06:02:44.367Z,66.23
2019-02-28T06:05:12.908Z,68.33
2019-02-28T06:07:41.397Z,67.63
2019-02-28T06:10:12.163Z,64.73
2019-02-28T06:12:43.824Z,65.50
2019-02-28T06:15:16.263Z,65.10
2019-02-28T06:17:44.839Z,65.53
2019-02-28T06:20:16.421Z,63.13
2019-02-28T06:22:43.769Z,64.83
2019-02-28T06:25:18.170Z,63.27
2019-02-28T06:27:49.109Z,61.80
2019-02-28T06:30:17.586Z,62.00
2019-02-28T06:32:46.178Z,61.63
2019-02-28T06:35:17.720Z,59.83
2019-02-28T06:37:44.489Z,58.90
2019-02-28T06:40:17.358Z,59.20
2019-02-28T06:42:46.830Z,59.77
2019-02-28T06:45:16.694Z,59.13
2019-02-28T06:47:47.965Z,58.07
2019-02-28T06:50:15.453Z,58.17
2019-02-28T06:52:43.822Z,57.00
2019-02-28T06:55:26.158Z,56.40
2019-02-28T06:57:54.757Z,57.20
2019-02-28T07:00:23.026Z,54.73
2019-02-28T07:02:51.333Z,58.43
2019-02-28T07:05:24.812Z,57.17
2019-02-28T07:07:50.348Z,54.13
2019-02-28T07:10:18.837Z,54.27
2019-02-28T07:12:47.158Z,62.53
2019-02-28T07:15:23.487Z,66.03
2019-02-28T07:17:47.619Z,64.03
2019-02-28T07:20:17.321Z,64.00
2019-02-28T07:22:45.609Z,60.10
2019-02-28T07:25:13.987Z,60.83
2019-02-28T07:27:42.748Z,62.07
2019-02-28T07:30:19.550Z,64.83
2019-02-28T07:32:47.938Z,63.37
2019-02-28T07:35:16.240Z,63.93
2019-02-28T07:37:45.823Z,65.43
2019-02-28T07:40:17.106Z,64.23
2019-02-28T07:42:46.045Z,61.97
2019-02-28T07:45:15.005Z,64.37
2019-02-28T07:47:43.658Z,60.33
2019-02-28T07:50:13.375Z,62.97
2019-02-28T07:52:42.033Z,61.50
2019-02-28T07:55:19.447Z,60.57
2019-02-28T07:57:51.147Z,57.90
2019-02-28T08:00:19.312Z,60.90
2019-02-28T08:02:47.688Z,58.90
2019-02-28T08:05:15.971Z,59.83
2019-02-28T08:07:50.501Z,66.20
2019-02-28T08:10:17.259Z,86.53
2019-02-28T08:12:45.654Z,96.43
2019-02-28T08:15:21.169Z,107.73
2019-02-28T08:17:47.118Z,103.17
2019-02-28T08:20:15.807Z,101.43
2019-02-28T08:22:44.110Z,100.30
2019-02-28T08:25:14.131Z,99.80
2019-02-28T08:27:42.438Z,96.13
2019-02-28T08:30:20.493Z,97.03
2019-02-28T08:32:49.372Z,97.73
2019-02-28T08:35:17.655Z,99.83
2019-02-28T08:37:45.965Z,129.50
2019-02-28T08:40:20.344Z,127.20
2019-02-28T08:42:49.963Z,121.30
2019-02-28T08:45:18.544Z,113.97
2019-02-28T08:47:47.124Z,109.20
2019-02-28T08:50:23.325Z,139.00
2019-02-28T08:52:55.981Z,145.63
2019-02-28T08:55:28.721Z,137.57
2019-02-28T08:57:57.859Z,126.43
2019-02-28T09:00:24.462Z,118.63
2019-02-28T09:02:53.710Z,122.93
2019-02-28T09:05:25.980Z,126.77
2019-02-28T09:07:52.584Z,125.87
2019-02-28T09:10:22.812Z,122.57
2019-02-28T09:12:51.501Z,122.83
2019-02-28T09:15:20.071Z,123.00
2019-02-28T09:17:48.433Z,120.80
2019-02-28T09:20:17.077Z,118.13
2019-02-28T09:22:45.469Z,118.10
2019-02-28T09:25:21.205Z,112.80
2019-02-28T09:27:46.375Z,110.07
2019-02-28T09:30:29.859Z,126.40
2019-02-28T09:32:59.216Z,149.50
2019-02-28T09:35:27.798Z,139.87
2019-02-28T09:37:56.382Z,164.33
2019-02-28T09:40:25.661Z,138.90
2019-02-28T09:42:54.983Z,135.90
2019-02-28T09:45:33.498Z,129.93
2019-02-28T09:48:02.302Z,133.73
2019-02-28T09:50:33.097Z,128.67
2019-02-28T09:53:01.211Z,127.90
2019-02-28T09:55:34.383Z,125.27
2019-02-28T09:58:00.143Z,126.70
2019-02-28T10:00:28.928Z,121.37
2019-02-28T10:02:57.257Z,125.53
2019-02-28T10:05:25.952Z,127.10
2019-02-28T10:07:54.238Z,126.77
2019-02-28T10:10:24.566Z,160.10
2019-02-28T10:12:56.837Z,155.03
2019-02-28T10:15:25.584Z,154.20
2019-02-28T10:17:53.888Z,159.60
2019-02-28T10:20:36.977Z,150.73
2019-02-28T10:23:06.207Z,136.43
2019-02-28T10:25:40.119Z,136.50
2019-02-28T10:28:05.115Z,130.47
2019-02-28T10:30:33.423Z,131.00
2019-02-28T10:33:01.730Z,118.60
2019-02-28T10:35:33.360Z,113.93
2019-02-28T10:38:00.694Z,191.67
2019-02-28T10:40:31.971Z,151.90
2019-02-28T10:43:00.272Z,164.77
2019-02-28T10:45:28.995Z,164.97
2019-02-28T10:48:00.224Z,150.67
2019-02-28T10:50:33.634Z,152.30
2019-02-28T10:53:05.386Z,147.47
2019-02-28T10:55:32.785Z,145.40
2019-02-28T10:58:01.438Z,141.17
2019-02-28T11:00:32.746Z,133.23
2019-02-28T11:03:02.314Z,138.10
2019-02-28T11:05:36.124Z,132.33
2019-02-28T11:08:04.867Z,131.57
2019-02-28T11:10:36.419Z,129.93
2019-02-28T11:13:08.036Z,128.73
2019-02-28T11:15:36.394Z,122.37
2019-02-28T11:18:08.562Z,125.17
2019-02-28T11:20:35.384Z,125.57
2019-02-28T11:23:04.070Z,117.27
2019-02-28T11:25:35.524Z,112.87
2019-02-28T11:28:02.978Z,114.27
2019-02-28T11:30:32.341Z,114.87
2019-02-28T11:33:04.539Z,112.17
2019-02-28T11:35:31.291Z,118.77
2019-02-28T11:37:59.598Z,114.83
2019-02-28T11:40:30.914Z,110.20
2019-02-28T11:43:02.785Z,111.30
2019-02-28T11:45:38.784Z,110.13
2019-02-28T11:48:09.503Z,107.33
2019-02-28T11:50:41.209Z,108.53
2019-02-28T11:53:07.836Z,101.67
2019-02-28T11:55:36.146Z,102.77
2019-02-28T11:58:04.718Z,100.77
2019-02-28T12:00:35.827Z,97.53
2019-02-28T12:03:05.887Z,95.97
2019-02-28T12:05:34.676Z,96.83
2019-02-28T12:08:06.340Z,95.37
2019-02-28T12:10:33.592Z,95.73
2019-02-28T12:13:02.369Z,93.23
2019-02-28T12:15:41.499Z,99.07
2019-02-28T12:18:09.801Z,115.20
2019-02-28T12:20:38.360Z,107.03
2019-02-28T12:23:09.697Z,111.37
2019-02-28T12:25:39.589Z,112.67
2019-02-28T12:28:08.098Z,103.90
2019-02-28T12:30:36.923Z,110.73
2019-02-28T12:33:05.236Z,101.83
2019-02-28T12:35:40.004Z,99.77
2019-02-28T12:38:04.404Z,93.07
2019-02-28T12:40:34.568Z,89.77
2019-02-28T12:43:08.718Z,82.90
2019-02-28T12:45:39.077Z,78.83
2019-02-28T12:48:07.659Z,79.07
2019-02-28T12:50:35.966Z,77.37
2019-02-28T12:53:04.935Z,74.33
2019-02-28T12:55:35.527Z,69.60
2019-02-28T12:58:03.260Z,60.13
2019-02-28T13:00:40.457Z,57.93
2019-02-28T13:03:09.317Z,54.33
2019-02-28T13:05:38.094Z,54.83
2019-02-28T13:08:07.071Z,54.23
2019-02-28T13:10:35.980Z,54.50
2019-02-28T13:13:06.945Z,53.80
2019-02-28T13:15:34.372Z,54.87
2019-02-28T13:18:07.169Z,51.67
2019-02-28T13:20:36.393Z,49.63
2019-02-28T13:23:04.770Z,50.07
2019-02-28T13:25:33.071Z,46.23
2019-02-28T13:28:01.405Z,44.60
2019-02-28T13:30:29.827Z,43.73
2019-02-28T13:32:58.230Z,44.00
2019-02-28T13:35:34.482Z,41.73
2019-02-28T13:38:03.215Z,37.70
2019-02-28T13:40:31.898Z,28.47
2019-02-28T13:43:01.818Z,26.40
2019-02-28T13:45:30.704Z,28.73
2019-02-28T13:47:59.375Z,27.30
2019-02-28T13:50:32.361Z,26.50
2019-02-28T13:53:03.420Z,26.80
2019-02-28T13:55:30.100Z,26.53
2019-02-28T13:57:58.461Z,25.67
2019-02-28T14:00:29.787Z,26.70
2019-02-28T14:03:00.037Z,25.07
2019-02-28T14:05:28.679Z,24.07
2019-02-28T14:07:57.554Z,22.30
2019-02-28T14:10:29.712Z,21.57
2019-02-28T14:12:57.982Z,19.97
2019-02-28T14:15:32.502Z,19.37
2019-02-28T14:18:00.782Z,18.90
2019-02-28T14:20:29.088Z,18.43
2019-02-28T14:22:57.500Z,17.93
2019-02-28T14:25:26.483Z,17.73
2019-02-28T14:27:56.915Z,16.93
2019-02-28T14:30:25.992Z,13.90
2019-02-28T14:32:54.305Z,14.20
2019-02-28T14:35:24.639Z,13.40
2019-02-28T14:37:55.783Z,13.53
2019-02-28T14:40:23.061Z,13.57
2019-02-28T14:42:51.415Z,13.50
2019-02-28T14:45:28.541Z,13.53
2019-02-28T14:47:57.462Z,13.80
2019-02-28T14:50:26.344Z,14.17
2019-02-28T14:52:58.140Z,12.77
2019-02-28T14:55:29.280Z,13.30
2019-02-28T14:57:56.903Z,13.03
2019-02-28T15:00:30.105Z,12.23
2019-02-28T15:03:02.427Z,12.47
2019-02-28T15:05:35.558Z,13.63
2019-02-28T15:08:04.147Z,13.73
2019-02-28T15:10:34.212Z,12.70
2019-02-28T15:13:04.806Z,12.57
2019-02-28T15:15:32.958Z,12.40
2019-02-28T15:18:01.244Z,13.10
2019-02-28T15:20:32.836Z,14.00
2019-02-28T15:22:59.823Z,22.10
2019-02-28T15:25:29.960Z,35.50
2019-02-28T15:27:58.277Z,42.47
2019-02-28T15:30:34.910Z,40.77
2019-02-28T15:33:03.457Z,39.00
2019-02-28T15:35:32.067Z,34.73
2019-02-28T15:38:00.367Z,33.87
2019-02-28T15:40:35.101Z,32.20
2019-02-28T15:43:03.671Z,34.30
2019-02-28T15:45:36.075Z,40.63
2019-02-28T15:48:02.664Z,43.07
2019-02-28T15:50:30.956Z,42.37
2019-02-28T15:52:59.524Z,40.90
2019-02-28T15:55:27.821Z,41.93
2019-02-28T15:57:56.393Z,41.33
2019-02-28T16:00:29.610Z,40.70
2019-02-28T16:02:58.074Z,38.20
2019-02-28T16:05:26.377Z,36.63
2019-02-28T16:07:55.023Z,38.57
2019-02-28T16:10:31.984Z,36.57
2019-02-28T16:12:59.977Z,35.60
2019-02-28T16:15:28.297Z,36.93
2019-02-28T16:17:56.658Z,41.67
2019-02-28T16:20:28.625Z,43.53
2019-02-28T16:22:55.641Z,43.10
2019-02-28T16:25:35.415Z,44.17
2019-02-28T16:28:04.499Z,43.90
2019-02-28T16:30:34.606Z,48.40
2019-02-28T16:33:03.455Z,49.10
2019-02-28T16:35:31.769Z,51.37
2019-02-28T16:38:00.510Z,46.37
2019-02-28T16:40:32.510Z,49.23
2019-02-28T16:43:00.836Z,51.13
2019-02-28T16:45:37.493Z,48.37
2019-02-28T16:48:07.821Z,46.67
2019-02-28T16:50:36.363Z,47.23
2019-02-28T16:53:04.903Z,52.03
2019-02-28T16:55:33.283Z,53.83
2019-02-28T16:58:02.039Z,53.77
2019-02-28T17:00:30.715Z,57.90
2019-02-28T17:02:59.272Z,57.23
2019-02-28T17:05:28.377Z,57.73
2019-02-28T17:07:57.498Z,58.07
2019-02-28T17:10:35.778Z,57.93
2019-02-28T17:13:06.171Z,57.03
2019-02-28T17:15:55.778Z,55.53
2019-02-28T17:18:33.704Z,53.63
2019-02-28T17:21:02.289Z,53.97
2019-02-28T17:23:33.793Z,50.90
2019-02-28T17:26:00.626Z,52.33
2019-02-28T17:28:33.891Z,50.27
2019-02-28T17:31:22.757Z,50.03
2019-02-28T17:33:51.102Z,53.33
2019-02-28T17:36:20.577Z,56.10
2019-02-28T17:38:49.605Z,60.77
2019-02-28T17:41:17.916Z,60.07
2019-02-28T17:44:05.931Z,56.80
2019-02-28T17:46:34.620Z,63.70
2019-02-28T17:49:39.186Z,83.30
2019-02-28T17:52:13.479Z,101.03
2019-02-28T17:54:54.178Z,77.67
2019-02-28T17:57:26.918Z,71.40
2019-02-28T18:00:01.175Z,77.37
2019-02-28T18:03:06.488Z,99.17
2019-02-28T18:05:38.541Z,112.27
2019-02-28T18:08:25.139Z,106.30
2019-02-28T18:11:14.333Z,112.87
2019-02-28T18:14:03.913Z,118.30
2019-02-28T18:16:41.271Z,123.03
2019-02-28T18:19:33.313Z,118.90
2019-02-28T18:22:15.974Z,118.47
2019-02-28T18:25:01.071Z,115.57
2019-02-28T18:27:50.743Z,114.00
2019-02-28T18:30:25.173Z,136.20
2019-02-28T18:32:53.770Z,146.07
2019-02-28T18:35:22.472Z,171.00
2019-02-28T18:37:50.808Z,148.63
2019-02-28T18:40:19.428Z,139.30
2019-02-28T18:42:47.725Z,135.57
2019-02-28T18:45:19.137Z,130.80
2019-02-28T18:47:46.070Z,126.97
2019-02-28T18:50:14.779Z,129.67
2019-02-28T18:52:43.367Z,122.67
2019-02-28T18:55:11.752Z,122.87
2019-02-28T18:57:40.337Z,129.83
2019-02-28T19:00:15.374Z,116.70
2019-02-28T19:02:43.951Z,118.53
2019-02-28T19:05:12.282Z,119.70
2019-02-28T19:07:40.595Z,120.07
2019-02-28T19:10:10.009Z,113.87
2019-02-28T19:12:38.303Z,114.03
2019-02-28T19:15:12.991Z,113.60
2019-02-28T19:17:41.715Z,112.07
2019-02-28T19:20:11.719Z,111.80
2019-02-28T19:22:40.320Z,109.20
2019-02-28T19:25:12.091Z,129.73
2019-02-28T19:27:40.754Z,163.80
2019-02-28T19:30:14.659Z,165.47
2019-02-28T19:32:43.041Z,166.20
2019-02-28T19:35:11.355Z,148.60
2019-02-28T19:37:39.996Z,157.73
2019-02-28T19:40:12.442Z,146.97
2019-02-28T19:42:40.781Z,142.33
2019-02-28T19:45:15.890Z,137.70
2019-02-28T19:47:44.175Z,148.50
2019-02-28T19:50:12.604Z,136.83
2019-02-28T19:52:41.044Z,147.37
2019-02-28T19:55:12.878Z,171.67
2019-02-28T19:57:41.208Z,157.97
2019-02-28T20:00:13.114Z,160.60
2019-02-28T20:02:41.707Z,165.40
2019-02-28T20:05:10.751Z,161.83
2019-02-28T20:07:39.114Z,149.97
2019-02-28T20:10:18.601Z,143.37
2019-02-28T20:12:47.621Z,138.63
2019-02-28T20:15:22.850Z,131.30
2019-02-28T20:17:51.322Z,133.73
2019-02-28T20:20:24.369Z,128.73
2019-02-28T20:22:52.691Z,123.77
2019-02-28T20:25:21.003Z,127.27
2019-02-28T20:27:49.783Z,126.20
2019-02-28T20:30:19.690Z,120.10
2019-02-28T20:32:48.365Z,131.10
2019-02-28T20:35:25.872Z,129.50
2019-02-28T20:37:47.266Z,127.33
2019-02-28T20:40:18.710Z,126.57
2019-02-28T20:42:46.997Z,123.93
2019-02-28T20:45:15.323Z,120.20
2019-02-28T20:47:43.968Z,116.97
2019-02-28T20:50:18.771Z,111.67
2019-02-28T20:52:47.374Z,112.90
2019-02-28T20:55:15.959Z,119.13
2019-02-28T20:57:44.545Z,133.60
2019-02-28T21:00:17.263Z,129.73
2019-02-28T21:02:45.657Z,123.77
2019-02-28T21:05:13.960Z,135.70
2019-02-28T21:07:42.283Z,151.80
2019-02-28T21:10:11.315Z,160.73
2019-02-28T21:12:39.679Z,145.37
2019-02-28T21:15:12.825Z,140.40
2019-02-28T21:17:41.516Z,118.37
2019-02-28T21:20:12.773Z,121.80
2019-02-28T21:22:41.347Z,126.73
2019-02-28T21:25:15.189Z,121.67
2019-02-28T21:27:43.827Z,121.83
2019-02-28T21:30:23.272Z,120.57
2019-02-28T21:32:51.590Z,125.87
2019-02-28T21:35:20.281Z,122.27
2019-02-28T21:37:49.137Z,113.30
2019-02-28T21:40:18.836Z,116.83
2019-02-28T21:42:47.144Z,114.97
2019-02-28T21:45:18.419Z,115.53
2019-02-28T21:47:47.039Z,111.70
2019-02-28T21:50:18.511Z,112.17
2019-02-28T21:52:46.819Z,107.00
2019-02-28T21:55:16.504Z,108.20
2019-02-28T21:57:45.059Z,106.70
2019-02-28T22:00:30.948Z,115.53
2019-02-28T22:02:59.250Z,138.23
2019-02-28T22:05:27.814Z,135.03
2019-02-28T22:07:56.267Z,125.73
2019-02-28T22:10:24.584Z,126.57
2019-02-28T22:12:53.263Z,121.67
2019-02-28T22:15:22.542Z,125.37
2019-02-28T22:17:50.826Z,125.37
2019-02-28T22:20:19.511Z,121.30
2019-02-28T22:22:48.241Z,119.53
2019-02-28T22:25:17.503Z,119.53
2019-02-28T22:27:45.883Z,120.07
2019-02-28T22:30:42.605Z,114.47
2019-02-28T22:33:18.893Z,112.20
2019-02-28T22:35:58.444Z,107.43
2019-02-28T22:38:26.759Z,109.10
2019-02-28T22:40:55.394Z,106.13
2019-02-28T22:43:24.082Z,105.67
2019-02-28T22:45:52.570Z,102.20
2019-02-28T22:48:20.873Z,101.73
2019-02-28T22:50:49.429Z,100.80
2019-02-28T22:53:17.979Z,102.00
2019-02-28T22:55:46.590Z,147.93
2019-02-28T22:58:14.894Z,154.97
2019-02-28T23:00:56.463Z,156.27
2019-02-28T23:03:24.839Z,135.30
2019-02-28T23:05:53.722Z,124.70
2019-02-28T23:08:22.036Z,122.60
2019-02-28T23:10:50.683Z,118.70
2019-02-28T23:13:19.280Z,116.90
2019-02-28T23:15:47.823Z,113.10
2019-02-28T23:18:16.439Z,122.17
2019-02-28T23:20:45.018Z,137.40
2019-02-28T23:23:13.608Z,160.13
2019-02-28T23:25:42.195Z,164.10
2019-02-28T23:28:28.589Z,149.00
2019-02-28T23:31:16.685Z,142.10
2019-02-28T23:33:45.056Z,146.70
2019-02-28T23:36:13.690Z,155.87
2019-02-28T23:38:42.063Z,159.47
2019-02-28T23:41:10.490Z,161.33
2019-02-28T23:43:38.790Z,177.70
2019-02-28T23:46:07.527Z,166.53
2019-02-28T23:48:35.820Z,157.27
2019-02-28T23:51:04.139Z,154.03
2019-02-28T23:53:32.423Z,155.60
2019-02-28T23:56:01.237Z,158.50
2019-02-28T23:58:29.542Z,147.80
